MSC Vanessa — HOWD — position and weather

sailwx.info

Track history (hours):
 
Tides and Currents Weather Stations Pressure Air Temp Water Temp Dewpoint Dewpoint Depression Visibility Wind Speed Wind Dir Waves Ship Positions

MSC Vanessa

Last reported at 2016-Jul-25 19:33 UTC. Time now 2016-Jul-25 20:02 UTC.
Position N 38°35' W 074°08'.

Length 300 m; draft 10.8 m.

Type: Ship (hazmat cat D). MMSI: 356946000.

Date/timePositionNaut miles runAvg speedWind from/ knotsBaromVisibWave heightAir tempDewpointWater temp
2016-Jul-25 19:33N 38°35' W 074°08'5116.2
2016-Jul-25 16:25N 39°24' W 073°52'1516.9
2016-Jul-25 15:32N 39°39' W 073°52'1716.8
2016-Jul-25 14:33N 39°56' W 073°51'1717.0
2016-Jul-25 13:34N 40°13' W 073°50'1414.2
2016-Jul-25 12:33N 40°27' W 073°50'1414.1
2016-Jul-25 11:33N 40°37' W 074°03'5 5.0
2016-Jul-25 10:33N 40°40' W 074°08'1 1.2
2016-Jul-25 09:32N 40°41' W 074°09'0 0.0
2016-Jul-25 08:32N 40°41' W 074°09'0 0.0
2016-Jul-25 07:32N 40°41' W 074°09'0 0.0
2016-Jul-25 06:32N 40°41' W 074°09'0 0.0
2016-Jul-25 05:29N 40°41' W 074°09'0 0.0
2016-Jul-25 04:32N 40°41' W 074°09'0 0.0
2016-Jul-25 03:32N 40°41' W 074°09'0 0.0
2016-Jul-25 02:32N 40°41' W 074°09'0 0.0
2016-Jul-25 01:32N 40°41' W 074°09'0 0.0
2016-Jul-25 00:32N 40°41' W 074°09'0 0.0
2016-Jul-24 23:32N 40°41' W 074°09'0 0.0
2016-Jul-24 22:20N 40°41' W 074°09'0 0.0
2016-Jul-24 21:26N 40°41' W 074°09'0 0.0
2016-Jul-24 19:26N 40°41' W 074°09'0 0.0
2016-Jul-24 18:11N 40°41' W 074°09'0 0.0
2016-Jul-24 17:29N 40°41' W 074°09'0 0.0
2016-Jul-24 16:29N 40°41' W 074°09'0 0.0
2016-Jul-24 15:23N 40°41' W 074°09'0 0.0
2016-Jul-24 14:26N 40°41' W 074°09'0 0.0
2016-Jul-24 13:29N 40°41' W 074°09'0 0.0
2016-Jul-24 12:32N 40°41' W 074°09'0 0.0
2016-Jul-24 11:32N 40°41' W 074°09'2 2.1
2016-Jul-24 10:33N 40°39' W 074°09'5 4.9
2016-Jul-24 09:33N 40°37' W 074°03'9 9.2
2016-Jul-24 08:33N 40°30' W 073°56'9 8.9
2016-Jul-24 07:33N 40°24' W 073°47'8 7.9
2016-Jul-24 06:33N 40°16' W 073°46'10 9.6
2016-Jul-24 05:33N 40°07' W 073°44'1212.4
2016-Jul-24 04:33N 39°55' W 073°42'1312.5
2016-Jul-24 03:33N 39°42' W 073°40'1312.9
2016-Jul-24 02:33N 39°29' W 073°40'1313.1
2016-Jul-24 01:33N 39°16' W 073°40'2913.3
2016-Jul-23 23:21N 38°48' W 073°50'1 1.1
2016-Jul-23 22:30N 38°47' W 073°51'1 0.8
2016-Jul-23 21:26N 38°46' W 073°51'2 1.9
2016-Jul-23 20:31N 38°48' W 073°50'33 6.6
2016-Jul-23 15:27N 38°18' W 074°10'1112.9
2016-Jul-23 14:33N 38°08' W 074°17'1313.0
2016-Jul-23 13:33N 37°56' W 074°23'4212.7
2016-Jul-23 10:12N 37°21' W 074°52'4913.2
2016-Jul-23 06:29N 36°49' W 075°40'2312.0
2016-Jul-23 04:33N 36°58' W 076°07'1111.3
2016-Jul-23 03:33N 36°56' W 076°20'3 3.1
2016-Jul-23 02:30N 36°53' W 076°21'0 0.0
2016-Jul-23 01:33N 36°53' W 076°21'0 0.0
2016-Jul-23 00:33N 36°53' W 076°21'0 0.0
2016-Jul-22 23:30N 36°53' W 076°21'0 0.0
2016-Jul-22 22:33N 36°53' W 076°21'0 0.0
2016-Jul-22 21:33N 36°53' W 076°21'0 0.0
2016-Jul-22 20:33N 36°53' W 076°21'0 0.0
2016-Jul-22 19:33N 36°53' W 076°21'0 0.0
2016-Jul-22 18:30N 36°53' W 076°21'0 0.0
2016-Jul-22 17:30N 36°53' W 076°21'0 0.0
2016-Jul-22 16:33N 36°53' W 076°21'0 0.0
2016-Jul-22 15:18N 36°53' W 076°21'0 0.0
2016-Jul-22 14:33N 36°53' W 076°21'0 0.0
2016-Jul-22 13:33N 36°53' W 076°21'0 0.0
2016-Jul-22 12:33N 36°53' W 076°21'0 0.0
2016-Jul-22 11:33N 36°53' W 076°21'0 0.0
2016-Jul-22 10:34N 36°53' W 076°21'5 4.6
2016-Jul-22 09:34N 36°57' W 076°20'10 9.9
2016-Jul-22 08:33N 36°59' W 076°08'1211.8
2016-Jul-22 07:34N 36°55' W 075°54'28 8.5
2016-Jul-22 04:20N 36°45' W 075°22'63713.3
2016-Jul-20 04:33N 26°47' W 079°42'2020.3
2016-Jul-20 03:33N 26°28' W 079°50'2019.5
2016-Jul-20 02:33N 26°10' W 079°58'9 8.9
2016-Jul-20 01:33N 26°05' W 080°07'1 1.1
2016-Jul-20 00:32N 26°04' W 080°07'0 0.0
2016-Jul-19 23:32N 26°04' W 080°07'0 0.0
2016-Jul-19 22:32N 26°04' W 080°07'0 0.0
2016-Jul-19 21:23N 26°04' W 080°07'0 0.0
2016-Jul-19 20:26N 26°04' W 080°07'0 0.0
2016-Jul-19 19:26N 26°04' W 080°07'0 0.0
2016-Jul-19 18:26N 26°04' W 080°07'0 0.0
2016-Jul-19 17:29N 26°04' W 080°07'0 0.0
2016-Jul-19 16:29N 26°04' W 080°07'0 0.0
2016-Jul-19 15:32N 26°04' W 080°07'0 0.0
2016-Jul-19 14:32N 26°04' W 080°07'0 0.0
2016-Jul-19 13:32N 26°04' W 080°07'0 0.0
2016-Jul-19 12:29N 26°04' W 080°07'0 0.0
2016-Jul-19 11:32N 26°04' W 080°07'0 0.0
2016-Jul-19 10:32N 26°04' W 080°07'0 0.0
2016-Jul-19 09:32N 26°04' W 080°07'1 1.1
2016-Jul-19 08:33N 26°05' W 080°07'5 5.1
2016-Jul-19 07:33N 26°06' W 080°01'12 4.1
2016-Jul-19 04:33N 26°11' W 079°49'8 8.0
2016-Jul-19 03:33N 26°14' W 079°41'1211.9
2016-Jul-19 02:33N 26°17' W 079°28'  
Track history (hours):
 
Tides and Currents Weather Stations Pressure Air Temp Water Temp Dewpoint Dewpoint Depression Visibility Wind Speed Wind Dir Waves Ship Positions

MSC Vanessa

Last reported at 2016-Jul-25 19:33 UTC. Time now 2016-Jul-25 20:02 UTC.
Position N 38°35' W 074°08'.

Length 300 m; draft 10.8 m.

Type: Ship (hazmat cat D). MMSI: 356946000.

Date/timePositionNaut miles runAvg speedWind from/ knotsBaromVisibWave heightAir tempDewpointWater temp
2016-Jul-25 19:33N 38°35' W 074°08'5116.2
2016-Jul-25 16:25N 39°24' W 073°52'1516.9
2016-Jul-25 15:32N 39°39' W 073°52'1716.8
2016-Jul-25 14:33N 39°56' W 073°51'1717.0
2016-Jul-25 13:34N 40°13' W 073°50'1414.2
2016-Jul-25 12:33N 40°27' W 073°50'1414.1
2016-Jul-25 11:33N 40°37' W 074°03'5 5.0
2016-Jul-25 10:33N 40°40' W 074°08'1 1.2
2016-Jul-25 09:32N 40°41' W 074°09'0 0.0
2016-Jul-25 08:32N 40°41' W 074°09'0 0.0
2016-Jul-25 07:32N 40°41' W 074°09'0 0.0
2016-Jul-25 06:32N 40°41' W 074°09'0 0.0
2016-Jul-25 05:29N 40°41' W 074°09'0 0.0
2016-Jul-25 04:32N 40°41' W 074°09'0 0.0
2016-Jul-25 03:32N 40°41' W 074°09'0 0.0
2016-Jul-25 02:32N 40°41' W 074°09'0 0.0
2016-Jul-25 01:32N 40°41' W 074°09'0 0.0
2016-Jul-25 00:32N 40°41' W 074°09'0 0.0
2016-Jul-24 23:32N 40°41' W 074°09'0 0.0
2016-Jul-24 22:20N 40°41' W 074°09'0 0.0
2016-Jul-24 21:26N 40°41' W 074°09'0 0.0
2016-Jul-24 19:26N 40°41' W 074°09'0 0.0
2016-Jul-24 18:11N 40°41' W 074°09'0 0.0
2016-Jul-24 17:29N 40°41' W 074°09'0 0.0
2016-Jul-24 16:29N 40°41' W 074°09'0 0.0
2016-Jul-24 15:23N 40°41' W 074°09'0 0.0
2016-Jul-24 14:26N 40°41' W 074°09'0 0.0
2016-Jul-24 13:29N 40°41' W 074°09'0 0.0
2016-Jul-24 12:32N 40°41' W 074°09'0 0.0
2016-Jul-24 11:32N 40°41' W 074°09'2 2.1
2016-Jul-24 10:33N 40°39' W 074°09'5 4.9
2016-Jul-24 09:33N 40°37' W 074°03'9 9.2
2016-Jul-24 08:33N 40°30' W 073°56'9 8.9
2016-Jul-24 07:33N 40°24' W 073°47'8 7.9
2016-Jul-24 06:33N 40°16' W 073°46'10 9.6
2016-Jul-24 05:33N 40°07' W 073°44'1212.4
2016-Jul-24 04:33N 39°55' W 073°42'1312.5
2016-Jul-24 03:33N 39°42' W 073°40'1312.9
2016-Jul-24 02:33N 39°29' W 073°40'1313.1
2016-Jul-24 01:33N 39°16' W 073°40'2913.3
2016-Jul-23 23:21N 38°48' W 073°50'1 1.1
2016-Jul-23 22:30N 38°47' W 073°51'1 0.8
2016-Jul-23 21:26N 38°46' W 073°51'2 1.9
2016-Jul-23 20:31N 38°48' W 073°50'33 6.6
2016-Jul-23 15:27N 38°18' W 074°10'1112.9
2016-Jul-23 14:33N 38°08' W 074°17'1313.0
2016-Jul-23 13:33N 37°56' W 074°23'4212.7
2016-Jul-23 10:12N 37°21' W 074°52'4913.2
2016-Jul-23 06:29N 36°49' W 075°40'2312.0
2016-Jul-23 04:33N 36°58' W 076°07'1111.3
2016-Jul-23 03:33N 36°56' W 076°20'3 3.1
2016-Jul-23 02:30N 36°53' W 076°21'0 0.0
2016-Jul-23 01:33N 36°53' W 076°21'0 0.0
2016-Jul-23 00:33N 36°53' W 076°21'0 0.0
2016-Jul-22 23:30N 36°53' W 076°21'0 0.0
2016-Jul-22 22:33N 36°53' W 076°21'0 0.0
2016-Jul-22 21:33N 36°53' W 076°21'0 0.0
2016-Jul-22 20:33N 36°53' W 076°21'0 0.0
2016-Jul-22 19:33N 36°53' W 076°21'0 0.0
2016-Jul-22 18:30N 36°53' W 076°21'0 0.0
2016-Jul-22 17:30N 36°53' W 076°21'0 0.0
2016-Jul-22 16:33N 36°53' W 076°21'0 0.0
2016-Jul-22 15:18N 36°53' W 076°21'0 0.0
2016-Jul-22 14:33N 36°53' W 076°21'0 0.0
2016-Jul-22 13:33N 36°53' W 076°21'0 0.0
2016-Jul-22 12:33N 36°53' W 076°21'0 0.0
2016-Jul-22 11:33N 36°53' W 076°21'0 0.0
2016-Jul-22 10:34N 36°53' W 076°21'5 4.6
2016-Jul-22 09:34N 36°57' W 076°20'10 9.9
2016-Jul-22 08:33N 36°59' W 076°08'1211.8
2016-Jul-22 07:34N 36°55' W 075°54'28 8.5
2016-Jul-22 04:20N 36°45' W 075°22'63713.3
2016-Jul-20 04:33N 26°47' W 079°42'2020.3
2016-Jul-20 03:33N 26°28' W 079°50'2019.5
2016-Jul-20 02:33N 26°10' W 079°58'9 8.9
2016-Jul-20 01:33N 26°05' W 080°07'1 1.1
2016-Jul-20 00:32N 26°04' W 080°07'0 0.0
2016-Jul-19 23:32N 26°04' W 080°07'0 0.0
2016-Jul-19 22:32N 26°04' W 080°07'0 0.0
2016-Jul-19 21:23N 26°04' W 080°07'0 0.0
2016-Jul-19 20:26N 26°04' W 080°07'0 0.0
2016-Jul-19 19:26N 26°04' W 080°07'0 0.0
2016-Jul-19 18:26N 26°04' W 080°07'0 0.0
2016-Jul-19 17:29N 26°04' W 080°07'0 0.0
2016-Jul-19 16:29N 26°04' W 080°07'0 0.0
2016-Jul-19 15:32N 26°04' W 080°07'0 0.0
2016-Jul-19 14:32N 26°04' W 080°07'0 0.0
2016-Jul-19 13:32N 26°04' W 080°07'0 0.0
2016-Jul-19 12:29N 26°04' W 080°07'0 0.0
2016-Jul-19 11:32N 26°04' W 080°07'0 0.0
2016-Jul-19 10:32N 26°04' W 080°07'0 0.0
2016-Jul-19 09:32N 26°04' W 080°07'1 1.1
2016-Jul-19 08:33N 26°05' W 080°07'5 5.1
2016-Jul-19 07:33N 26°06' W 080°01'12 4.1
2016-Jul-19 04:33N 26°11' W 079°49'8 8.0
2016-Jul-19 03:33N 26°14' W 079°41'1211.9
2016-Jul-19 02:33N 26°17' W 079°28'  

Dump ship's entire track history